createdAt,value
2018-12-08T00:00:56.124Z,0
2018-12-08T00:01:56.110Z,0
2018-12-08T00:02:55.843Z,0
2018-12-08T00:03:56.077Z,0
2018-12-08T00:04:56.071Z,0
2018-12-08T00:05:56.052Z,0
2018-12-08T00:06:56.036Z,0
2018-12-08T00:07:56.030Z,0
2018-12-08T00:08:56.008Z,0
2018-12-08T00:09:56.000Z,0
2018-12-08T00:10:56.082Z,0
2018-12-08T00:11:55.966Z,0
2018-12-08T00:12:55.975Z,0
2018-12-08T00:13:55.940Z,0
2018-12-08T00:14:55.925Z,0
2018-12-08T00:15:55.670Z,0
2018-12-08T00:16:55.646Z,0
2018-12-08T00:17:55.885Z,0
2018-12-08T00:18:55.867Z,0
2018-12-08T00:19:55.855Z,0
2018-12-08T00:20:55.584Z,0
2018-12-08T00:21:55.825Z,0
2018-12-08T00:22:55.888Z,0
2018-12-08T00:23:55.545Z,0
2018-12-08T00:24:55.776Z,0
2018-12-08T00:25:55.763Z,0
2018-12-08T00:26:55.501Z,0
2018-12-08T00:27:55.488Z,0
2018-12-08T00:28:55.469Z,0
2018-12-08T00:29:55.699Z,0
2018-12-08T00:30:55.692Z,0
2018-12-08T00:31:55.670Z,0
2018-12-08T00:32:55.658Z,0
2018-12-08T00:33:55.734Z,0
2018-12-08T00:34:55.380Z,0
2018-12-08T00:35:55.363Z,0
2018-12-08T00:36:55.603Z,0
2018-12-08T00:37:55.576Z,0
2018-12-08T00:38:55.565Z,0
2018-12-08T00:39:55.557Z,0
2018-12-08T00:40:55.287Z,0
2018-12-08T00:41:55.515Z,0
2018-12-08T00:42:55.499Z,0
2018-12-08T00:43:55.243Z,0
2018-12-08T00:44:55.465Z,0
2018-12-08T00:45:55.459Z,0
2018-12-08T00:46:55.439Z,0
2018-12-08T00:47:55.173Z,0
2018-12-08T00:48:55.406Z,0
2018-12-08T00:49:55.385Z,0
2018-12-08T00:50:55.373Z,0
2018-12-08T00:51:55.353Z,0
2018-12-08T00:52:55.088Z,0
2018-12-08T00:53:55.071Z,0
2018-12-08T00:54:55.302Z,0
2018-12-08T00:55:55.290Z,0
2018-12-08T00:56:55.391Z,0
2018-12-08T00:57:55.266Z,0
2018-12-08T00:58:55.244Z,0
2018-12-08T00:59:55.225Z,0
2018-12-08T01:00:55.214Z,0
2018-12-08T01:01:55.194Z,0
2018-12-08T01:02:54.929Z,0
2018-12-08T01:03:55.165Z,0
2018-12-08T01:04:55.151Z,0
2018-12-08T01:05:54.878Z,0
2018-12-08T01:06:55.226Z,0
2018-12-08T01:07:55.098Z,0
2018-12-08T01:08:55.084Z,0
2018-12-08T01:09:55.073Z,0
2018-12-08T01:10:54.554Z,0
2018-12-08T01:11:54.784Z,0
2018-12-08T01:12:54.771Z,0
2018-12-08T01:13:54.999Z,0
2018-12-08T01:14:54.994Z,0
2018-12-08T01:15:54.979Z,0
2018-12-08T01:16:54.990Z,0
2018-12-08T01:17:54.938Z,0
2018-12-08T01:18:54.927Z,0
2018-12-08T01:19:54.904Z,0
2018-12-08T01:20:54.888Z,0
2018-12-08T01:21:54.872Z,0
2018-12-08T01:22:54.866Z,0
2018-12-08T01:23:54.836Z,0
2018-12-08T01:24:54.577Z,0
2018-12-08T01:25:54.563Z,0
2018-12-08T01:26:54.886Z,0
2018-12-08T01:27:54.780Z,0
2018-12-08T01:28:54.512Z,0
2018-12-08T01:29:54.750Z,0
2018-12-08T01:30:54.733Z,0
2018-12-08T01:31:54.715Z,0
2018-12-08T01:32:56.905Z,0
2018-12-08T01:33:54.440Z,0
2018-12-08T01:34:54.666Z,0
2018-12-08T01:35:54.656Z,0
2018-12-08T01:36:54.432Z,0
2018-12-08T01:37:54.431Z,0
2018-12-08T01:38:54.604Z,0
2018-12-08T01:39:54.588Z,0
2018-12-08T01:40:54.573Z,0
2018-12-08T01:41:54.556Z,0
2018-12-08T01:42:54.539Z,0
2018-12-08T01:43:54.276Z,0
2018-12-08T01:44:54.513Z,0
2018-12-08T01:45:54.243Z,0
2018-12-08T01:46:54.330Z,0
2018-12-08T01:47:54.213Z,0
2018-12-08T01:48:54.445Z,0
2018-12-08T01:49:54.429Z,0
2018-12-08T01:50:54.414Z,0
2018-12-08T01:51:54.394Z,0
2018-12-08T01:52:54.378Z,0
2018-12-08T01:53:54.119Z,0
2018-12-08T01:54:54.346Z,0
2018-12-08T01:55:54.333Z,0
2018-12-08T01:56:54.139Z,0
2018-12-08T01:57:54.054Z,0
2018-12-08T01:58:54.286Z,0
2018-12-08T01:59:54.270Z,0
2018-12-08T02:00:54.256Z,0
2018-12-08T02:01:53.990Z,0
2018-12-08T02:02:54.235Z,0
2018-12-08T02:03:55.351Z,0
2018-12-08T02:04:54.197Z,0
2018-12-08T02:05:54.178Z,0
2018-12-08T02:06:54.162Z,0
2018-12-08T02:07:54.143Z,0
2018-12-08T02:08:54.128Z,0
2018-12-08T02:09:53.866Z,0
2018-12-08T02:10:53.856Z,0
2018-12-08T02:11:54.081Z,0
2018-12-08T02:12:54.366Z,0
2018-12-08T02:13:54.154Z,0
2018-12-08T02:14:54.033Z,0
2018-12-08T02:15:54.046Z,0
2018-12-08T02:16:54.014Z,0
2018-12-08T02:17:53.983Z,0
2018-12-08T02:18:53.970Z,0
2018-12-08T02:19:54.062Z,0
2018-12-08T02:20:53.936Z,0
2018-12-08T02:21:53.940Z,0
2018-12-08T02:22:53.414Z,0
2018-12-08T02:23:53.648Z,0
2018-12-08T02:24:53.878Z,0
2018-12-08T02:25:53.859Z,0
2018-12-08T02:26:53.595Z,0
2018-12-08T02:27:53.831Z,0
2018-12-08T02:28:53.560Z,0
2018-12-08T02:29:53.800Z,0
2018-12-08T02:30:53.777Z,0
2018-12-08T02:31:53.517Z,0
2018-12-08T02:32:53.755Z,0
2018-12-08T02:33:53.736Z,0
2018-12-08T02:34:53.725Z,0
2018-12-08T02:35:53.465Z,0
2018-12-08T02:36:53.686Z,0
2018-12-08T02:37:53.681Z,0
2018-12-08T02:38:53.671Z,0
2018-12-08T02:39:53.392Z,0
2018-12-08T02:40:53.622Z,0
2018-12-08T02:41:53.616Z,0
2018-12-08T02:42:53.593Z,0
2018-12-08T02:43:53.576Z,0
2018-12-08T02:44:53.310Z,0
2018-12-08T02:45:53.559Z,0
2018-12-08T02:46:53.601Z,0
2018-12-08T02:47:53.512Z,0
2018-12-08T02:48:53.493Z,0
2018-12-08T02:49:53.232Z,0
2018-12-08T02:50:53.478Z,0
2018-12-08T02:51:53.464Z,0
2018-12-08T02:52:53.178Z,0
2018-12-08T02:53:53.420Z,0
2018-12-08T02:54:53.411Z,0
2018-12-08T02:55:52.896Z,0
2018-12-08T02:56:53.367Z,0
2018-12-08T02:57:53.354Z,0
2018-12-08T02:58:53.327Z,0
2018-12-08T02:59:53.327Z,0
2018-12-08T03:00:53.059Z,0
2018-12-08T03:01:53.295Z,0
2018-12-08T03:02:53.307Z,0
2018-12-08T03:03:53.255Z,0
2018-12-08T03:04:53.236Z,0
2018-12-08T03:05:53.216Z,0
2018-12-08T03:06:53.207Z,0
2018-12-08T03:07:52.703Z,0
2018-12-08T03:08:53.265Z,0
2018-12-08T03:09:52.660Z,0
2018-12-08T03:10:53.142Z,0
2018-12-08T03:11:53.229Z,0
2018-12-08T03:12:53.108Z,0
2018-12-08T03:13:53.093Z,0
2018-12-08T03:14:53.084Z,0
2018-12-08T03:15:53.056Z,0
2018-12-08T03:16:52.810Z,0
2018-12-08T03:17:53.032Z,0
2018-12-08T03:18:53.016Z,0
2018-12-08T03:19:53.015Z,0
2018-12-08T03:20:52.729Z,0
2018-12-08T03:21:52.972Z,0
2018-12-08T03:22:52.952Z,0
2018-12-08T03:23:52.961Z,0
2018-12-08T03:24:52.669Z,0
2018-12-08T03:25:52.898Z,0
2018-12-08T03:26:52.636Z,0
2018-12-08T03:27:52.624Z,0
2018-12-08T03:28:52.854Z,0
2018-12-08T03:29:52.843Z,0
2018-12-08T03:30:52.851Z,0
2018-12-08T03:31:52.573Z,0
2018-12-08T03:32:52.812Z,0
2018-12-08T03:33:52.535Z,0
2018-12-08T03:34:52.757Z,0
2018-12-08T03:35:52.744Z,0
2018-12-08T03:36:52.723Z,0
2018-12-08T03:37:52.728Z,0
2018-12-08T03:38:52.704Z,0
2018-12-08T03:39:52.677Z,0
2018-12-08T03:40:52.716Z,0
2018-12-08T03:41:52.156Z,0
2018-12-08T03:42:52.630Z,0
2018-12-08T03:43:52.628Z,0
2018-12-08T03:44:52.598Z,0
2018-12-08T03:45:52.340Z,0
2018-12-08T03:46:52.566Z,0
2018-12-08T03:47:52.563Z,0
2018-12-08T03:48:52.295Z,0
2018-12-08T03:49:52.523Z,0
2018-12-08T03:50:52.510Z,0
2018-12-08T03:51:52.490Z,0
2018-12-08T03:52:52.229Z,0
2018-12-08T03:53:52.715Z,0
2018-12-08T03:54:52.196Z,0
2018-12-08T03:55:51.929Z,0
2018-12-08T03:56:52.167Z,0
2018-12-08T03:57:52.413Z,0
2018-12-08T03:58:52.385Z,0
2018-12-08T03:59:52.125Z,0
2018-12-08T04:00:52.479Z,0
2018-12-08T04:01:52.105Z,0
2018-12-08T04:02:52.333Z,0
2018-12-08T04:03:52.309Z,0
2018-12-08T04:04:52.289Z,0
2018-12-08T04:05:52.032Z,0
2018-12-08T04:06:52.259Z,0
2018-12-08T04:07:52.241Z,0
2018-12-08T04:08:51.974Z,0
2018-12-08T04:09:51.982Z,0
2018-12-08T04:10:51.951Z,0
2018-12-08T04:11:51.936Z,0
2018-12-08T04:12:52.175Z,0
2018-12-08T04:13:52.158Z,0
2018-12-08T04:14:52.183Z,0
2018-12-08T04:15:52.204Z,0
2018-12-08T04:16:51.914Z,0
2018-12-08T04:17:52.110Z,0
2018-12-08T04:18:52.060Z,0
2018-12-08T04:19:52.049Z,0
2018-12-08T04:20:52.025Z,0
2018-12-08T04:21:52.106Z,0
2018-12-08T04:22:51.995Z,0
2018-12-08T04:23:51.984Z,0
2018-12-08T04:24:51.978Z,0
2018-12-08T04:25:52.020Z,0
2018-12-08T04:26:51.938Z,0
2018-12-08T04:27:51.915Z,0
2018-12-08T04:28:51.900Z,0
2018-12-08T04:29:51.895Z,0
2018-12-08T04:30:51.865Z,0
2018-12-08T04:31:51.861Z,0
2018-12-08T04:32:51.592Z,0
2018-12-08T04:33:51.577Z,0
2018-12-08T04:34:51.801Z,0
2018-12-08T04:35:51.792Z,0
2018-12-08T04:36:51.829Z,0
2018-12-08T04:37:51.752Z,0
2018-12-08T04:38:51.739Z,0
2018-12-08T04:39:51.726Z,0
2018-12-08T04:40:51.479Z,0
2018-12-08T04:41:51.691Z,0
2018-12-08T04:42:51.429Z,0
2018-12-08T04:43:51.418Z,0
2018-12-08T04:44:51.394Z,0
2018-12-08T04:45:51.377Z,0
2018-12-08T04:46:51.362Z,0
2018-12-08T04:47:51.345Z,0
2018-12-08T04:48:51.589Z,0
2018-12-08T04:49:51.563Z,0
2018-12-08T04:50:51.627Z,0
2018-12-08T04:51:51.539Z,0
2018-12-08T04:52:51.571Z,0
2018-12-08T04:53:51.503Z,0
2018-12-08T04:54:51.481Z,0
2018-12-08T04:55:51.248Z,0
2018-12-08T04:56:51.200Z,0
2018-12-08T04:57:51.429Z,0
2018-12-08T04:58:51.418Z,0
2018-12-08T04:59:51.412Z,0
2018-12-08T05:00:51.385Z,0
2018-12-08T05:01:51.367Z,0
2018-12-08T05:02:51.373Z,0
2018-12-08T05:03:51.350Z,0
2018-12-08T05:04:51.317Z,0
2018-12-08T05:05:51.325Z,0
2018-12-08T05:06:51.036Z,0
2018-12-08T05:07:51.262Z,0
2018-12-08T05:08:51.251Z,0
2018-12-08T05:09:50.992Z,0
2018-12-08T05:10:50.968Z,0
2018-12-08T05:11:51.199Z,0
2018-12-08T05:12:51.185Z,0
2018-12-08T05:13:50.917Z,0
2018-12-08T05:14:51.156Z,0
2018-12-08T05:15:51.136Z,0
2018-12-08T05:16:51.121Z,0
2018-12-08T05:17:51.102Z,0
2018-12-08T05:18:51.083Z,0
2018-12-08T05:19:50.980Z,0
2018-12-08T05:20:51.056Z,0
2018-12-08T05:21:51.036Z,0
2018-12-08T05:22:51.019Z,0
2018-12-08T05:23:50.755Z,0
2018-12-08T05:24:51.058Z,0
2018-12-08T05:25:50.976Z,0
2018-12-08T05:26:51.004Z,0
2018-12-08T05:27:50.689Z,0
2018-12-08T05:28:50.921Z,0
2018-12-08T05:29:50.904Z,0
2018-12-08T05:30:50.890Z,0
2018-12-08T05:31:50.876Z,0
2018-12-08T05:32:50.859Z,0
2018-12-08T05:33:50.905Z,0
2018-12-08T05:34:50.839Z,0
2018-12-08T05:35:50.811Z,0
2018-12-08T05:36:50.299Z,0
2018-12-08T05:37:50.775Z,0
2018-12-08T05:38:50.508Z,0
2018-12-08T05:39:50.754Z,0
2018-12-08T05:40:50.725Z,0
2018-12-08T05:41:50.714Z,0
2018-12-08T05:42:50.696Z,0
2018-12-08T05:43:50.678Z,0
2018-12-08T05:44:50.664Z,0
2018-12-08T05:45:50.664Z,0
2018-12-08T05:46:50.628Z,0
2018-12-08T05:47:50.366Z,0
2018-12-08T05:48:50.426Z,0
2018-12-08T05:49:50.584Z,0
2018-12-08T05:50:50.314Z,0
2018-12-08T05:51:50.302Z,0
2018-12-08T05:52:50.648Z,0
2018-12-08T05:53:50.514Z,0
2018-12-08T05:54:50.546Z,0
2018-12-08T05:55:50.481Z,0
2018-12-08T05:56:50.468Z,0
2018-12-08T05:57:50.199Z,0
2018-12-08T05:58:50.180Z,0
2018-12-08T05:59:50.172Z,0
2018-12-08T06:00:50.396Z,0
2018-12-08T06:01:50.462Z,0
2018-12-08T06:02:50.124Z,0
2018-12-08T06:03:50.348Z,0
2018-12-08T06:04:50.339Z,0
2018-12-08T06:05:50.314Z,0
2018-12-08T06:06:50.396Z,0
2018-12-08T06:07:50.283Z,0
2018-12-08T06:08:50.268Z,0
2018-12-08T06:09:50.008Z,0
2018-12-08T06:10:50.236Z,0
2018-12-08T06:11:50.214Z,0
2018-12-08T06:12:49.954Z,0
2018-12-08T06:13:50.190Z,0
2018-12-08T06:14:50.182Z,0
2018-12-08T06:15:50.157Z,0
2018-12-08T06:16:50.137Z,0
2018-12-08T06:17:49.867Z,0
2018-12-08T06:18:50.102Z,0
2018-12-08T06:19:50.087Z,0
2018-12-08T06:20:50.072Z,0
2018-12-08T06:21:49.813Z,0
2018-12-08T06:22:49.788Z,0
2018-12-08T06:23:50.018Z,0
2018-12-08T06:24:50.010Z,0
2018-12-08T06:25:49.988Z,4
2018-12-08T06:26:49.967Z,4
2018-12-08T06:27:49.951Z,4
2018-12-08T06:28:49.685Z,4
2018-12-08T06:29:49.915Z,4
2018-12-08T06:30:49.908Z,8
2018-12-08T06:31:49.637Z,4
2018-12-08T06:32:49.895Z,8
2018-12-08T06:33:49.851Z,8
2018-12-08T06:34:49.844Z,8
2018-12-08T06:35:49.571Z,8
2018-12-08T06:36:49.553Z,8
2018-12-08T06:37:49.799Z,12
2018-12-08T06:38:49.533Z,16
2018-12-08T06:39:49.505Z,16
2018-12-08T06:40:49.484Z,16
2018-12-08T06:41:49.718Z,20
2018-12-08T06:42:49.461Z,24
2018-12-08T06:43:49.685Z,32
2018-12-08T06:44:49.672Z,36
2018-12-08T06:45:49.666Z,36
2018-12-08T06:46:49.390Z,24
2018-12-08T06:47:49.618Z,28
2018-12-08T06:48:49.107Z,40
2018-12-08T06:49:49.338Z,40
2018-12-08T06:50:49.567Z,40
2018-12-08T06:51:49.555Z,40
2018-12-08T06:52:49.532Z,48
2018-12-08T06:53:49.529Z,72
2018-12-08T06:54:49.505Z,84
2018-12-08T06:55:49.485Z,104
2018-12-08T06:56:49.475Z,112
2018-12-08T06:57:49.453Z,116
2018-12-08T06:58:49.184Z,132
2018-12-08T06:59:49.171Z,136
2018-12-08T07:00:49.405Z,100
2018-12-08T07:01:49.385Z,108
2018-12-08T07:02:49.373Z,140
2018-12-08T07:03:49.353Z,140
2018-12-08T07:04:49.340Z,128
2018-12-08T07:05:49.321Z,148
2018-12-08T07:06:49.300Z,156
2018-12-08T07:07:49.296Z,200
2018-12-08T07:08:49.266Z,232
2018-12-08T07:09:49.260Z,256
2018-12-08T07:10:49.236Z,300
2018-12-08T07:11:49.220Z,340
2018-12-08T07:12:48.954Z,356
2018-12-08T07:13:49.186Z,356
2018-12-08T07:14:49.167Z,364
2018-12-08T07:15:49.156Z,392
2018-12-08T07:16:49.136Z,424
2018-12-08T07:17:49.118Z,496
2018-12-08T07:18:49.117Z,504
2018-12-08T07:19:48.846Z,520
2018-12-08T07:20:49.071Z,572
2018-12-08T07:21:49.056Z,568
2018-12-08T07:22:49.044Z,568
2018-12-08T07:23:48.774Z,572
2018-12-08T07:24:48.756Z,528
2018-12-08T07:25:48.990Z,492
2018-12-08T07:26:48.720Z,852
2018-12-08T07:27:48.707Z,1180
2018-12-08T07:28:48.697Z,1048
2018-12-08T07:29:48.938Z,920
2018-12-08T07:30:48.906Z,712
2018-12-08T07:31:48.892Z,688
2018-12-08T07:32:48.875Z,708
2018-12-08T07:33:48.859Z,816
2018-12-08T07:34:48.841Z,888
2018-12-08T07:35:48.827Z,920
2018-12-08T07:36:48.809Z,1008
2018-12-08T07:37:48.791Z,1028
2018-12-08T07:38:48.771Z,960
2018-12-08T07:39:48.558Z,1036
2018-12-08T07:40:48.496Z,1028
2018-12-08T07:41:48.227Z,1132
2018-12-08T07:42:48.461Z,1088
2018-12-08T07:43:48.696Z,1056
2018-12-08T07:44:48.680Z,1048
2018-12-08T07:45:48.421Z,1068
2018-12-08T07:46:48.398Z,1076
2018-12-08T07:47:48.634Z,1064
2018-12-08T07:48:48.618Z,1164
2018-12-08T07:49:48.349Z,1288
2018-12-08T07:50:48.337Z,1164
2018-12-08T07:51:48.565Z,1672
2018-12-08T07:52:48.545Z,1224
2018-12-08T07:53:48.533Z,964
2018-12-08T07:54:48.513Z,1144
2018-12-08T07:55:48.499Z,1024
2018-12-08T07:56:48.484Z,1088
2018-12-08T07:57:48.466Z,916
2018-12-08T07:58:48.449Z,956
2018-12-08T07:59:48.432Z,1032
2018-12-08T08:00:48.419Z,1252
2018-12-08T08:01:48.402Z,1084
2018-12-08T08:02:48.391Z,1068
2018-12-08T08:03:48.366Z,936
2018-12-08T08:04:48.352Z,980
2018-12-08T08:05:48.107Z,928
2018-12-08T08:06:48.321Z,976
2018-12-08T08:07:48.309Z,1144
2018-12-08T08:08:48.326Z,1032
2018-12-08T08:09:48.086Z,1076
2018-12-08T08:10:48.039Z,1352
2018-12-08T08:11:48.019Z,1304
2018-12-08T08:12:48.223Z,1516
2018-12-08T08:13:48.206Z,1968
2018-12-08T08:14:47.948Z,1840
2018-12-08T08:15:47.945Z,1780
2018-12-08T08:16:48.165Z,1516
2018-12-08T08:17:48.159Z,1552
2018-12-08T08:18:48.143Z,1508
2018-12-08T08:19:48.128Z,1128
2018-12-08T08:20:48.109Z,1264
2018-12-08T08:21:48.097Z,980
2018-12-08T08:22:48.077Z,1204
2018-12-08T08:23:47.802Z,1588
2018-12-08T08:24:48.038Z,1824
2018-12-08T08:25:48.027Z,1556
2018-12-08T08:26:48.004Z,1524
2018-12-08T08:27:48.006Z,1816
2018-12-08T08:28:47.984Z,1296
2018-12-08T08:29:47.762Z,2444
2018-12-08T08:30:47.941Z,2640
2018-12-08T08:31:48.789Z,1436
2018-12-08T08:32:47.907Z,1168
2018-12-08T08:33:47.885Z,1528
2018-12-08T08:34:47.871Z,1596
2018-12-08T08:35:47.859Z,2524
2018-12-08T08:36:47.595Z,2964
2018-12-08T08:37:47.579Z,2748
2018-12-08T08:38:47.812Z,2592
2018-12-08T08:39:47.801Z,1944
2018-12-08T08:40:47.775Z,2524
2018-12-08T08:41:47.765Z,2236
2018-12-08T08:42:47.757Z,1884
2018-12-08T08:43:47.728Z,2204
2018-12-08T08:44:47.788Z,2292
2018-12-08T08:45:47.701Z,2168
2018-12-08T08:46:47.788Z,2348
2018-12-08T08:47:47.416Z,2640
2018-12-08T08:48:47.771Z,2316
2018-12-08T08:49:47.632Z,2184
2018-12-08T08:50:47.619Z,2440
2018-12-08T08:51:47.619Z,2348
2018-12-08T08:52:47.643Z,3168
2018-12-08T08:53:47.324Z,2628
2018-12-08T08:54:47.557Z,2748
2018-12-08T08:55:47.550Z,2972
2018-12-08T08:56:47.546Z,2748
2018-12-08T08:57:47.538Z,2480
2018-12-08T08:58:47.546Z,2084
2018-12-08T08:59:47.536Z,2540
2018-12-08T09:00:47.486Z,2196
2018-12-08T09:01:47.511Z,2484
2018-12-08T09:02:47.485Z,2360
2018-12-08T09:03:47.465Z,2032
2018-12-08T09:04:47.447Z,2272
2018-12-08T09:05:47.165Z,2564
2018-12-08T09:06:47.304Z,2128
2018-12-08T09:07:47.386Z,2928
2018-12-08T09:08:47.089Z,3176
2018-12-08T09:09:47.353Z,3124
2018-12-08T09:10:47.332Z,2780
2018-12-08T09:11:47.045Z,3144
2018-12-08T09:12:47.301Z,3232
2018-12-08T09:13:47.282Z,2836
2018-12-08T09:14:47.275Z,2364
2018-12-08T09:15:47.256Z,2276
2018-12-08T09:16:47.242Z,2776
2018-12-08T09:17:47.197Z,2828
2018-12-08T09:18:47.179Z,3004
2018-12-08T09:19:47.167Z,3060
2018-12-08T09:20:47.148Z,3228
2018-12-08T09:21:46.915Z,2800
2018-12-08T09:22:47.128Z,2220
2018-12-08T09:23:47.106Z,2124
2018-12-08T09:24:47.122Z,2064
2018-12-08T09:25:47.104Z,2512
2018-12-08T09:26:46.818Z,2568
2018-12-08T09:27:46.921Z,2472
2018-12-08T09:28:47.054Z,2356
2018-12-08T09:29:46.767Z,2128
2018-12-08T09:30:47.046Z,2772
2018-12-08T09:31:46.733Z,2664
2018-12-08T09:32:46.994Z,2888
2018-12-08T09:33:46.703Z,2520
2018-12-08T09:34:46.955Z,2584
2018-12-08T09:35:46.925Z,2416
2018-12-08T09:36:47.030Z,2732
2018-12-08T09:37:46.390Z,2600
2018-12-08T09:38:46.880Z,1872
2018-12-08T09:39:46.719Z,2144
2018-12-08T09:40:46.843Z,3348
2018-12-08T09:41:46.827Z,2884
2018-12-08T09:42:46.564Z,2696
2018-12-08T09:43:46.801Z,3420
2018-12-08T09:44:46.784Z,3812
2018-12-08T09:45:49.223Z,3444
2018-12-08T09:46:46.752Z,3248
2018-12-08T09:47:46.734Z,3372
2018-12-08T09:48:46.718Z,2660
2018-12-08T09:49:46.458Z,2296
2018-12-08T09:50:46.688Z,2568
2018-12-08T09:51:46.677Z,2060
2018-12-08T09:52:46.424Z,2256
2018-12-08T09:53:46.641Z,2228
2018-12-08T09:54:47.462Z,2708
2018-12-08T09:55:46.618Z,2884
2018-12-08T09:56:46.597Z,3384
2018-12-08T09:57:46.587Z,3584
2018-12-08T09:58:46.576Z,3880
2018-12-08T09:59:46.550Z,5068
2018-12-08T10:00:46.540Z,4888
2018-12-08T10:01:46.519Z,4048
2018-12-08T10:02:46.721Z,3356
2018-12-08T10:03:46.243Z,3444
2018-12-08T10:04:46.473Z,2940
2018-12-08T10:05:46.456Z,3068
2018-12-08T10:06:46.444Z,1936
2018-12-08T10:07:46.433Z,2052
2018-12-08T10:08:46.413Z,1860
2018-12-08T10:09:46.399Z,1460
2018-12-08T10:10:46.383Z,1896
2018-12-08T10:11:46.373Z,1576
2018-12-08T10:12:46.124Z,1588
2018-12-08T10:13:46.092Z,1468
2018-12-08T10:14:46.079Z,1500
2018-12-08T10:15:46.306Z,2076
2018-12-08T10:16:46.291Z,2088
2018-12-08T10:17:46.025Z,1896
2018-12-08T10:18:46.266Z,1616
2018-12-08T10:19:46.007Z,2048
2018-12-08T10:20:46.278Z,2404
2018-12-08T10:21:45.970Z,2096
2018-12-08T10:22:46.213Z,2548
2018-12-08T10:23:45.947Z,2604
2018-12-08T10:24:46.168Z,2980
2018-12-08T10:25:46.150Z,2056
2018-12-08T10:26:46.150Z,2568
2018-12-08T10:27:47.546Z,2156
2018-12-08T10:28:46.108Z,2276
2018-12-08T10:29:46.094Z,2512
2018-12-08T10:30:46.078Z,2656
2018-12-08T10:31:46.062Z,2608
2018-12-08T10:32:46.297Z,3408
2018-12-08T10:33:45.874Z,3484
2018-12-08T10:34:46.011Z,3296
2018-12-08T10:35:45.749Z,3712
2018-12-08T10:36:45.983Z,3540
2018-12-08T10:37:45.727Z,3340
2018-12-08T10:38:45.704Z,2896
2018-12-08T10:39:47.090Z,2416
2018-12-08T10:40:45.923Z,4232
2018-12-08T10:41:45.906Z,3636
2018-12-08T10:42:45.888Z,2704
2018-12-08T10:43:45.872Z,3052
2018-12-08T10:44:45.609Z,2412
2018-12-08T10:45:45.592Z,3032
2018-12-08T10:46:45.838Z,3220
2018-12-08T10:47:45.811Z,3572
2018-12-08T10:48:46.114Z,2740
2018-12-08T10:49:45.782Z,3416
2018-12-08T10:50:45.844Z,3300
2018-12-08T10:51:45.755Z,3212
2018-12-08T10:52:45.738Z,3256
2018-12-08T10:53:45.717Z,3216
2018-12-08T10:54:45.714Z,2084
2018-12-08T10:55:45.689Z,2152
2018-12-08T10:56:45.677Z,2796
2018-12-08T10:57:45.410Z,2748
2018-12-08T10:58:45.645Z,2588
2018-12-08T10:59:45.627Z,2276
2018-12-08T11:00:45.630Z,2692
2018-12-08T11:01:45.610Z,2764
2018-12-08T11:02:45.585Z,1896
2018-12-08T11:03:45.566Z,2212
2018-12-08T11:04:45.550Z,2104
2018-12-08T11:05:45.545Z,2660
2018-12-08T11:06:45.525Z,2048
2018-12-08T11:07:45.505Z,2596
2018-12-08T11:08:45.492Z,2476
2018-12-08T11:09:45.226Z,2008
2018-12-08T11:10:44.965Z,2852
2018-12-08T11:11:45.206Z,2604
2018-12-08T11:12:45.191Z,2488
2018-12-08T11:13:45.424Z,3124
2018-12-08T11:14:45.148Z,3168
2018-12-08T11:15:45.384Z,2604
2018-12-08T11:16:45.369Z,2080
2018-12-08T11:17:45.352Z,2224
2018-12-08T11:18:45.096Z,2444
2018-12-08T11:19:44.826Z,2916
2018-12-08T11:20:45.309Z,2468
2018-12-08T11:21:45.295Z,2432
2018-12-08T11:22:45.027Z,2852
2018-12-08T11:23:45.641Z,2460
2018-12-08T11:24:45.246Z,3108
2018-12-08T11:25:45.229Z,2688
2018-12-08T11:26:45.212Z,3080
2018-12-08T11:27:44.954Z,2736
2018-12-08T11:28:44.934Z,3400
2018-12-08T11:29:45.171Z,3384
2018-12-08T11:30:45.150Z,3516
2018-12-08T11:31:45.143Z,3092
2018-12-08T11:32:44.877Z,3512
2018-12-08T11:33:44.857Z,2964
2018-12-08T11:34:44.847Z,3876
2018-12-08T11:35:45.077Z,3240
2018-12-08T11:36:52.089Z,3936
2018-12-08T11:37:44.795Z,3856
2018-12-08T11:38:45.030Z,4580
2018-12-08T11:39:45.020Z,5660
2018-12-08T11:40:44.753Z,6144
2018-12-08T11:41:44.742Z,4928
2018-12-08T11:42:44.969Z,4624
2018-12-08T11:43:44.965Z,4868
2018-12-08T11:44:44.934Z,5208
2018-12-08T11:45:44.930Z,5620
2018-12-08T11:46:44.670Z,5908
2018-12-08T11:47:44.898Z,5208
2018-12-08T11:48:44.662Z,4284
2018-12-08T11:49:45.590Z,4264
2018-12-08T11:50:44.849Z,3032
2018-12-08T11:51:44.843Z,2440
2018-12-08T11:52:44.818Z,2532
2018-12-08T11:53:44.557Z,3384
2018-12-08T11:54:44.794Z,3964
2018-12-08T11:55:44.525Z,3080
2018-12-08T11:56:44.759Z,3272
2018-12-08T11:57:44.498Z,3208
2018-12-08T11:58:44.745Z,2944
2018-12-08T11:59:44.474Z,2492
2018-12-08T12:00:44.504Z,2336
2018-12-08T12:01:44.702Z,2180
2018-12-08T12:02:44.672Z,1820
2018-12-08T12:03:44.666Z,1700
2018-12-08T12:04:44.633Z,1824
2018-12-08T12:05:44.636Z,2432
2018-12-08T12:06:44.604Z,3252
2018-12-08T12:07:44.096Z,3560
2018-12-08T12:08:44.605Z,3164
2018-12-08T12:09:44.651Z,3956
2018-12-08T12:10:44.546Z,2376
2018-12-08T12:11:44.279Z,1860
2018-12-08T12:12:44.515Z,1504
2018-12-08T12:13:44.262Z,1660
2018-12-08T12:14:44.485Z,2372
2018-12-08T12:15:43.976Z,2056
2018-12-08T12:16:44.218Z,2388
2018-12-08T12:17:44.442Z,1916
2018-12-08T12:18:44.174Z,1776
2018-12-08T12:19:44.409Z,2004
2018-12-08T12:20:44.406Z,3368
2018-12-08T12:21:44.129Z,3184
2018-12-08T12:22:44.114Z,1912
2018-12-08T12:23:44.360Z,1532
2018-12-08T12:24:44.165Z,1488
2018-12-08T12:25:44.318Z,1360
2018-12-08T12:26:44.299Z,1384
2018-12-08T12:27:44.035Z,1388
2018-12-08T12:28:44.265Z,1356
2018-12-08T12:29:44.253Z,1548
2018-12-08T12:30:44.240Z,1580
2018-12-08T12:31:43.976Z,1692
2018-12-08T12:32:43.964Z,1688
2018-12-08T12:33:43.944Z,1656
2018-12-08T12:34:44.183Z,1596
2018-12-08T12:35:44.159Z,1960
2018-12-08T12:36:43.896Z,1808
2018-12-08T12:37:44.129Z,1752
2018-12-08T12:38:43.864Z,1700
2018-12-08T12:39:43.872Z,1568
2018-12-08T12:40:44.084Z,1508
2018-12-08T12:41:43.579Z,1564
2018-12-08T12:42:44.054Z,1544
2018-12-08T12:43:44.033Z,1692
2018-12-08T12:44:44.016Z,1764
2018-12-08T12:45:44.000Z,2120
2018-12-08T12:46:43.991Z,2296
2018-12-08T12:47:43.970Z,2348
2018-12-08T12:48:43.716Z,2216
2018-12-08T12:49:43.697Z,2220
2018-12-08T12:50:43.923Z,2440
2018-12-08T12:51:43.908Z,2340
2018-12-08T12:52:43.894Z,2552
2018-12-08T12:53:43.981Z,2420
2018-12-08T12:54:43.613Z,2476
2018-12-08T12:55:43.851Z,2212
2018-12-08T12:56:43.581Z,2724
2018-12-08T12:57:43.813Z,1492
2018-12-08T12:58:43.798Z,1332
2018-12-08T12:59:43.537Z,1392
2018-12-08T13:00:43.767Z,1412
2018-12-08T13:01:43.758Z,1396
2018-12-08T13:02:43.736Z,1604
2018-12-08T13:03:43.720Z,1604
2018-12-08T13:04:43.798Z,1556
2018-12-08T13:05:43.691Z,1548
2018-12-08T13:06:43.676Z,1344
2018-12-08T13:07:43.771Z,1340
2018-12-08T13:08:43.439Z,1352
2018-12-08T13:09:43.630Z,1228
2018-12-08T13:10:43.610Z,1152
2018-12-08T13:11:43.596Z,1252
2018-12-08T13:12:43.579Z,1248
2018-12-08T13:13:43.624Z,1292
2018-12-08T13:14:43.549Z,1276
2018-12-08T13:15:43.287Z,1232
2018-12-08T13:16:43.516Z,1328
2018-12-08T13:17:43.253Z,1412
2018-12-08T13:18:43.235Z,1452
2018-12-08T13:19:43.472Z,1452
2018-12-08T13:20:43.452Z,1412
2018-12-08T13:21:44.894Z,1584
2018-12-08T13:22:43.421Z,1660
2018-12-08T13:23:43.407Z,1500
2018-12-08T13:24:43.396Z,1564
2018-12-08T13:25:43.373Z,1648
2018-12-08T13:26:43.358Z,1628
2018-12-08T13:27:43.420Z,1752
2018-12-08T13:28:43.078Z,1752
2018-12-08T13:29:43.075Z,1772
2018-12-08T13:30:43.050Z,1808
2018-12-08T13:31:43.276Z,1888
2018-12-08T13:32:43.011Z,1856
2018-12-08T13:33:43.248Z,1816
2018-12-08T13:34:42.985Z,1716
2018-12-08T13:35:43.217Z,1644
2018-12-08T13:36:43.203Z,1608
2018-12-08T13:37:43.184Z,1796
2018-12-08T13:38:43.164Z,1812
2018-12-08T13:39:43.155Z,1828
2018-12-08T13:40:42.886Z,1716
2018-12-08T13:41:43.125Z,1668
2018-12-08T13:42:43.109Z,1540
2018-12-08T13:43:43.216Z,1400
2018-12-08T13:44:43.290Z,1320
2018-12-08T13:45:43.056Z,1284
2018-12-08T13:46:42.798Z,1204
2018-12-08T13:47:43.028Z,1464
2018-12-08T13:48:42.768Z,1504
2018-12-08T13:49:43.353Z,1404
2018-12-08T13:50:42.737Z,1232
2018-12-08T13:51:42.721Z,1348
2018-12-08T13:52:42.951Z,1348
2018-12-08T13:53:43.516Z,1324
2018-12-08T13:54:43.951Z,1408
2018-12-08T13:55:42.657Z,1396
2018-12-08T13:56:42.899Z,1260
2018-12-08T13:57:42.874Z,1400
2018-12-08T13:58:42.854Z,1256
2018-12-08T13:59:42.887Z,1288
2018-12-08T14:00:42.578Z,1320